sensor_id;sensor_type;location;lat;lon;timestamp;P1;durP1;ratioP1;P2;durP2;ratioP2
15474;SDS011;7839;50.462;9.678;2023-08-01T00:05:45;2.70;;;2.35;;
15474;SDS011;7839;50.462;9.678;2023-08-01T00:12:26;2.90;;;2.50;;
15474;SDS011;7839;50.462;9.678;2023-08-01T00:19:07;2.45;;;2.25;;
15474;SDS011;7839;50.462;9.678;2023-08-01T00:25:47;2.20;;;2.00;;
15474;SDS011;7839;50.462;9.678;2023-08-01T00:32:31;1.55;;;1.45;;
15474;SDS011;7839;50.462;9.678;2023-08-01T00:39:11;2.43;;;2.23;;
15474;SDS011;7839;50.462;9.678;2023-08-01T00:45:52;2.70;;;1.87;;
15474;SDS011;7839;50.462;9.678;2023-08-01T00:52:33;2.53;;;1.90;;
15474;SDS011;7839;50.462;9.678;2023-08-01T00:59:15;1.95;;;1.75;;
15474;SDS011;7839;50.462;9.678;2023-08-01T01:06:06;1.90;;;1.80;;
15474;SDS011;7839;50.462;9.678;2023-08-01T01:12:49;1.90;;;1.80;;
15474;SDS011;7839;50.462;9.678;2023-08-01T01:19:30;1.67;;;1.57;;
15474;SDS011;7839;50.462;9.678;2023-08-01T01:26:10;1.77;;;1.67;;
15474;SDS011;7839;50.462;9.678;2023-08-01T01:32:51;1.63;;;1.52;;
15474;SDS011;7839;50.462;9.678;2023-08-01T01:39:32;1.35;;;1.25;;
15474;SDS011;7839;50.462;9.678;2023-08-01T01:46:12;1.20;;;1.20;;
15474;SDS011;7839;50.462;9.678;2023-08-01T01:52:52;1.20;;;1.10;;
15474;SDS011;7839;50.462;9.678;2023-08-01T01:59:32;1.00;;;1.00;;
15474;SDS011;7839;50.462;9.678;2023-08-01T02:06:14;1.13;;;1.07;;
15474;SDS011;7839;50.462;9.678;2023-08-01T02:12:54;1.10;;;1.10;;
15474;SDS011;7839;50.462;9.678;2023-08-01T02:19:34;2.97;;;1.00;;
15474;SDS011;7839;50.462;9.678;2023-08-01T02:26:14;0.90;;;0.90;;
15474;SDS011;7839;50.462;9.678;2023-08-01T02:32:54;1.10;;;1.00;;
15474;SDS011;7839;50.462;9.678;2023-08-01T02:39:35;0.87;;;0.87;;
15474;SDS011;7839;50.462;9.678;2023-08-01T02:46:15;1.10;;;1.00;;
15474;SDS011;7839;50.462;9.678;2023-08-01T02:52:55;1.50;;;1.30;;
15474;SDS011;7839;50.462;9.678;2023-08-01T02:59:36;1.38;;;1.27;;
15474;SDS011;7839;50.462;9.678;2023-08-01T03:06:16;1.50;;;1.25;;
15474;SDS011;7839;50.462;9.678;2023-08-01T03:12:56;1.35;;;1.25;;
15474;SDS011;7839;50.462;9.678;2023-08-01T03:19:36;1.33;;;1.00;;
15474;SDS011;7839;50.462;9.678;2023-08-01T03:26:17;1.00;;;1.00;;
15474;SDS011;7839;50.462;9.678;2023-08-01T03:32:59;1.15;;;1.05;;
15474;SDS011;7839;50.462;9.678;2023-08-01T03:39:39;1.10;;;1.10;;
15474;SDS011;7839;50.462;9.678;2023-08-01T03:46:19;1.30;;;1.05;;
15474;SDS011;7839;50.462;9.678;2023-08-01T03:53:00;1.35;;;1.25;;
15474;SDS011;7839;50.462;9.678;2023-08-01T03:59:40;1.45;;;1.10;;
15474;SDS011;7839;50.462;9.678;2023-08-01T04:06:20;1.27;;;1.02;;
15474;SDS011;7839;50.462;9.678;2023-08-01T04:13:01;0.80;;;0.80;;
15474;SDS011;7839;50.462;9.678;2023-08-01T04:19:41;0.85;;;0.85;;
15474;SDS011;7839;50.462;9.678;2023-08-01T04:26:21;1.02;;;1.02;;
15474;SDS011;7839;50.462;9.678;2023-08-01T04:33:01;0.95;;;0.95;;
15474;SDS011;7839;50.462;9.678;2023-08-01T04:39:42;0.88;;;0.88;;
15474;SDS011;7839;50.462;9.678;2023-08-01T04:46:22;0.90;;;0.90;;
15474;SDS011;7839;50.462;9.678;2023-08-01T04:53:02;0.90;;;0.90;;
15474;SDS011;7839;50.462;9.678;2023-08-01T04:59:44;0.70;;;0.70;;
15474;SDS011;7839;50.462;9.678;2023-08-01T05:06:24;0.50;;;0.50;;
15474;SDS011;7839;50.462;9.678;2023-08-01T05:13:05;1.25;;;0.98;;
15474;SDS011;7839;50.462;9.678;2023-08-01T05:19:45;0.70;;;0.70;;
15474;SDS011;7839;50.462;9.678;2023-08-01T05:26:26;0.70;;;0.70;;
15474;SDS011;7839;50.462;9.678;2023-08-01T05:33:06;0.80;;;0.80;;
15474;SDS011;7839;50.462;9.678;2023-08-01T05:39:46;0.77;;;0.77;;
15474;SDS011;7839;50.462;9.678;2023-08-01T05:46:27;1.25;;;0.90;;
15474;SDS011;7839;50.462;9.678;2023-08-01T05:53:07;0.80;;;0.80;;
15474;SDS011;7839;50.462;9.678;2023-08-01T05:59:48;0.67;;;0.67;;
15474;SDS011;7839;50.462;9.678;2023-08-01T06:06:28;0.98;;;0.88;;
15474;SDS011;7839;50.462;9.678;2023-08-01T06:13:08;0.70;;;0.70;;
15474;SDS011;7839;50.462;9.678;2023-08-01T06:19:48;0.63;;;0.57;;
15474;SDS011;7839;50.462;9.678;2023-08-01T06:26:30;0.80;;;0.80;;
15474;SDS011;7839;50.462;9.678;2023-08-01T06:33:10;0.60;;;0.60;;
15474;SDS011;7839;50.462;9.678;2023-08-01T06:39:50;1.08;;;0.90;;
15474;SDS011;7839;50.462;9.678;2023-08-01T06:46:30;1.77;;;0.93;;
15474;SDS011;7839;50.462;9.678;2023-08-01T06:53:12;0.60;;;0.60;;
15474;SDS011;7839;50.462;9.678;2023-08-01T06:59:52;0.80;;;0.63;;
15474;SDS011;7839;50.462;9.678;2023-08-01T07:06:32;0.80;;;0.80;;
15474;SDS011;7839;50.462;9.678;2023-08-01T07:13:13;1.07;;;0.77;;
15474;SDS011;7839;50.462;9.678;2023-08-01T07:19:55;0.83;;;0.73;;
15474;SDS011;7839;50.462;9.678;2023-08-01T07:26:35;0.60;;;0.60;;
15474;SDS011;7839;50.462;9.678;2023-08-01T07:33:15;0.60;;;0.60;;
15474;SDS011;7839;50.462;9.678;2023-08-01T07:39:56;0.60;;;0.60;;
15474;SDS011;7839;50.462;9.678;2023-08-01T07:46:36;0.60;;;0.60;;
15474;SDS011;7839;50.462;9.678;2023-08-01T07:53:17;1.33;;;0.40;;
15474;SDS011;7839;50.462;9.678;2023-08-01T07:59:57;0.90;;;0.70;;
15474;SDS011;7839;50.462;9.678;2023-08-01T08:06:37;1.60;;;0.80;;
15474;SDS011;7839;50.462;9.678;2023-08-01T08:13:18;0.43;;;0.43;;
15474;SDS011;7839;50.462;9.678;2023-08-01T08:19:58;0.88;;;0.88;;
15474;SDS011;7839;50.462;9.678;2023-08-01T08:26:38;1.33;;;1.20;;
15474;SDS011;7839;50.462;9.678;2023-08-01T08:33:20;1.10;;;1.00;;
15474;SDS011;7839;50.462;9.678;2023-08-01T08:40:01;1.23;;;1.13;;
15474;SDS011;7839;50.462;9.678;2023-08-01T08:46:42;0.82;;;0.82;;
15474;SDS011;7839;50.462;9.678;2023-08-01T08:53:23;1.10;;;1.10;;
15474;SDS011;7839;50.462;9.678;2023-08-01T09:00:04;1.10;;;1.10;;
15474;SDS011;7839;50.462;9.678;2023-08-01T09:06:45;0.83;;;0.83;;
15474;SDS011;7839;50.462;9.678;2023-08-01T09:13:25;1.30;;;1.20;;
15474;SDS011;7839;50.462;9.678;2023-08-01T09:20:06;0.80;;;0.80;;
15474;SDS011;7839;50.462;9.678;2023-08-01T09:26:47;2.45;;;1.45;;
15474;SDS011;7839;50.462;9.678;2023-08-01T09:33:37;1.13;;;1.13;;
15474;SDS011;7839;50.462;9.678;2023-08-01T09:40:18;1.33;;;1.23;;
15474;SDS011;7839;50.462;9.678;2023-08-01T09:46:59;1.33;;;1.30;;
15474;SDS011;7839;50.462;9.678;2023-08-01T10:00:29;1.60;;;1.50;;
15474;SDS011;7839;50.462;9.678;2023-08-01T10:07:11;1.87;;;1.77;;
15474;SDS011;7839;50.462;9.678;2023-08-01T10:13:52;2.37;;;1.70;;
15474;SDS011;7839;50.462;9.678;2023-08-01T10:20:32;2.93;;;1.93;;
15474;SDS011;7839;50.462;9.678;2023-08-01T10:27:14;1.67;;;1.57;;
15474;SDS011;7839;50.462;9.678;2023-08-01T10:34:03;2.03;;;1.70;;
15474;SDS011;7839;50.462;9.678;2023-08-01T10:40:43;4.20;;;1.80;;
15474;SDS011;7839;50.462;9.678;2023-08-01T10:47:26;2.77;;;1.90;;
15474;SDS011;7839;50.462;9.678;2023-08-01T10:54:18;1.77;;;1.67;;
15474;SDS011;7839;50.462;9.678;2023-08-01T11:00:58;1.40;;;1.30;;
15474;SDS011;7839;50.462;9.678;2023-08-01T11:07:39;1.10;;;1.00;;
15474;SDS011;7839;50.462;9.678;2023-08-01T11:14:20;1.70;;;1.60;;
15474;SDS011;7839;50.462;9.678;2023-08-01T11:21:00;1.70;;;1.60;;
15474;SDS011;7839;50.462;9.678;2023-08-01T11:27:41;2.13;;;1.77;;
15474;SDS011;7839;50.462;9.678;2023-08-01T11:34:21;1.50;;;1.40;;
15474;SDS011;7839;50.462;9.678;2023-08-01T11:41:02;1.30;;;1.20;;
15474;SDS011;7839;50.462;9.678;2023-08-01T11:47:46;1.30;;;1.20;;
15474;SDS011;7839;50.462;9.678;2023-08-01T11:54:27;1.93;;;1.40;;
15474;SDS011;7839;50.462;9.678;2023-08-01T12:01:08;1.30;;;1.20;;
15474;SDS011;7839;50.462;9.678;2023-08-01T12:07:49;1.40;;;1.40;;
15474;SDS011;7839;50.462;9.678;2023-08-01T12:14:29;0.97;;;0.97;;
15474;SDS011;7839;50.462;9.678;2023-08-01T12:21:09;1.23;;;1.00;;
15474;SDS011;7839;50.462;9.678;2023-08-01T12:27:50;1.73;;;1.10;;
15474;SDS011;7839;50.462;9.678;2023-08-01T12:34:30;1.83;;;1.60;;
15474;SDS011;7839;50.462;9.678;2023-08-01T12:41:10;2.07;;;1.73;;
15474;SDS011;7839;50.462;9.678;2023-08-01T12:47:51;1.93;;;1.53;;
15474;SDS011;7839;50.462;9.678;2023-08-01T12:54:31;1.47;;;1.30;;
15474;SDS011;7839;50.462;9.678;2023-08-01T13:01:11;1.50;;;1.40;;
15474;SDS011;7839;50.462;9.678;2023-08-01T13:07:53;2.03;;;1.48;;
15474;SDS011;7839;50.462;9.678;2023-08-01T13:14:33;1.37;;;1.27;;
15474;SDS011;7839;50.462;9.678;2023-08-01T13:21:13;2.63;;;1.80;;
15474;SDS011;7839;50.462;9.678;2023-08-01T13:27:53;1.30;;;1.20;;
15474;SDS011;7839;50.462;9.678;2023-08-01T13:34:34;1.48;;;1.38;;
15474;SDS011;7839;50.462;9.678;2023-08-01T13:41:14;1.13;;;1.08;;
15474;SDS011;7839;50.462;9.678;2023-08-01T13:47:54;1.40;;;1.30;;
15474;SDS011;7839;50.462;9.678;2023-08-01T13:54:35;1.43;;;1.17;;
15474;SDS011;7839;50.462;9.678;2023-08-01T14:01:15;1.10;;;1.00;;
15474;SDS011;7839;50.462;9.678;2023-08-01T14:07:55;1.55;;;1.00;;
15474;SDS011;7839;50.462;9.678;2023-08-01T14:14:36;1.20;;;1.10;;
15474;SDS011;7839;50.462;9.678;2023-08-01T14:21:16;0.97;;;0.97;;
15474;SDS011;7839;50.462;9.678;2023-08-01T14:27:57;1.10;;;1.05;;
15474;SDS011;7839;50.462;9.678;2023-08-01T14:34:37;1.20;;;1.00;;
15474;SDS011;7839;50.462;9.678;2023-08-01T14:41:20;1.30;;;1.20;;
15474;SDS011;7839;50.462;9.678;2023-08-01T14:48:00;1.15;;;1.00;;
15474;SDS011;7839;50.462;9.678;2023-08-01T14:54:40;1.03;;;1.00;;
15474;SDS011;7839;50.462;9.678;2023-08-01T15:01:21;1.52;;;1.02;;
15474;SDS011;7839;50.462;9.678;2023-08-01T15:08:01;0.80;;;0.80;;
15474;SDS011;7839;50.462;9.678;2023-08-01T15:14:45;1.15;;;1.02;;
15474;SDS011;7839;50.462;9.678;2023-08-01T15:21:25;1.17;;;1.02;;
15474;SDS011;7839;50.462;9.678;2023-08-01T15:28:06;0.82;;;0.82;;
15474;SDS011;7839;50.462;9.678;2023-08-01T15:34:47;0.90;;;0.90;;
15474;SDS011;7839;50.462;9.678;2023-08-01T15:41:28;1.48;;;0.98;;
15474;SDS011;7839;50.462;9.678;2023-08-01T15:48:08;1.00;;;0.90;;
15474;SDS011;7839;50.462;9.678;2023-08-01T15:54:49;0.90;;;0.85;;
15474;SDS011;7839;50.462;9.678;2023-08-01T16:01:29;1.60;;;1.13;;
15474;SDS011;7839;50.462;9.678;2023-08-01T16:08:09;0.80;;;0.80;;
15474;SDS011;7839;50.462;9.678;2023-08-01T16:14:50;1.00;;;1.00;;
15474;SDS011;7839;50.462;9.678;2023-08-01T16:21:31;0.77;;;0.77;;
15474;SDS011;7839;50.462;9.678;2023-08-01T16:28:11;0.98;;;0.93;;
15474;SDS011;7839;50.462;9.678;2023-08-01T16:34:51;0.90;;;0.90;;
15474;SDS011;7839;50.462;9.678;2023-08-01T16:41:31;1.08;;;0.80;;
15474;SDS011;7839;50.462;9.678;2023-08-01T16:48:12;0.77;;;0.77;;
15474;SDS011;7839;50.462;9.678;2023-08-01T16:54:52;1.75;;;1.27;;
15474;SDS011;7839;50.462;9.678;2023-08-01T17:01:33;0.90;;;0.90;;
15474;SDS011;7839;50.462;9.678;2023-08-01T17:08:14;0.95;;;0.80;;
15474;SDS011;7839;50.462;9.678;2023-08-01T17:14:54;0.63;;;0.63;;
15474;SDS011;7839;50.462;9.678;2023-08-01T17:21:34;0.80;;;0.80;;
15474;SDS011;7839;50.462;9.678;2023-08-01T17:28:15;1.15;;;0.70;;
15474;SDS011;7839;50.462;9.678;2023-08-01T17:34:55;1.38;;;0.98;;
15474;SDS011;7839;50.462;9.678;2023-08-01T17:41:36;1.73;;;1.13;;
15474;SDS011;7839;50.462;9.678;2023-08-01T17:48:16;0.88;;;0.70;;
15474;SDS011;7839;50.462;9.678;2023-08-01T17:54:58;0.82;;;0.80;;
15474;SDS011;7839;50.462;9.678;2023-08-01T18:01:38;0.80;;;0.68;;
15474;SDS011;7839;50.462;9.678;2023-08-01T18:08:18;1.95;;;0.90;;
15474;SDS011;7839;50.462;9.678;2023-08-01T18:14:58;2.63;;;0.83;;
15474;SDS011;7839;50.462;9.678;2023-08-01T18:21:38;1.48;;;0.63;;
15474;SDS011;7839;50.462;9.678;2023-08-01T18:28:19;0.70;;;0.70;;
15474;SDS011;7839;50.462;9.678;2023-08-01T18:34:59;0.70;;;0.70;;
15474;SDS011;7839;50.462;9.678;2023-08-01T18:41:39;1.45;;;0.98;;
15474;SDS011;7839;50.462;9.678;2023-08-01T18:48:21;1.42;;;1.00;;
15474;SDS011;7839;50.462;9.678;2023-08-01T18:55:01;0.68;;;0.68;;
15474;SDS011;7839;50.462;9.678;2023-08-01T19:01:41;0.50;;;0.50;;
15474;SDS011;7839;50.462;9.678;2023-08-01T19:08:22;1.20;;;0.60;;
15474;SDS011;7839;50.462;9.678;2023-08-01T19:15:02;0.95;;;0.80;;
15474;SDS011;7839;50.462;9.678;2023-08-01T19:21:42;0.93;;;0.90;;
15474;SDS011;7839;50.462;9.678;2023-08-01T19:28:23;0.90;;;0.90;;
15474;SDS011;7839;50.462;9.678;2023-08-01T19:35:03;0.75;;;0.65;;
15474;SDS011;7839;50.462;9.678;2023-08-01T19:41:44;1.67;;;0.60;;
15474;SDS011;7839;50.462;9.678;2023-08-01T19:48:26;1.10;;;1.00;;
15474;SDS011;7839;50.462;9.678;2023-08-01T19:55:06;0.60;;;0.60;;
15474;SDS011;7839;50.462;9.678;2023-08-01T20:01:47;0.75;;;0.75;;
15474;SDS011;7839;50.462;9.678;2023-08-01T20:08:28;1.27;;;1.02;;
15474;SDS011;7839;50.462;9.678;2023-08-01T20:15:11;0.68;;;0.60;;
15474;SDS011;7839;50.462;9.678;2023-08-01T20:21:51;0.75;;;0.75;;
15474;SDS011;7839;50.462;9.678;2023-08-01T20:28:33;0.80;;;0.70;;
15474;SDS011;7839;50.462;9.678;2023-08-01T20:35:13;0.90;;;0.70;;
15474;SDS011;7839;50.462;9.678;2023-08-01T20:41:53;1.00;;;0.93;;
15474;SDS011;7839;50.462;9.678;2023-08-01T20:48:34;0.88;;;0.70;;
15474;SDS011;7839;50.462;9.678;2023-08-01T20:55:14;1.73;;;0.88;;
15474;SDS011;7839;50.462;9.678;2023-08-01T21:01:54;0.85;;;0.85;;
15474;SDS011;7839;50.462;9.678;2023-08-01T21:08:34;1.77;;;0.90;;
15474;SDS011;7839;50.462;9.678;2023-08-01T21:15:15;1.38;;;1.08;;
15474;SDS011;7839;50.462;9.678;2023-08-01T21:21:56;1.25;;;0.98;;
15474;SDS011;7839;50.462;9.678;2023-08-01T21:28:36;0.68;;;0.68;;
15474;SDS011;7839;50.462;9.678;2023-08-01T21:35:17;0.70;;;0.70;;
15474;SDS011;7839;50.462;9.678;2023-08-01T21:41:57;1.63;;;0.80;;
15474;SDS011;7839;50.462;9.678;2023-08-01T21:48:37;1.15;;;0.90;;
15474;SDS011;7839;50.462;9.678;2023-08-01T21:55:18;0.73;;;0.70;;
15474;SDS011;7839;50.462;9.678;2023-08-01T22:01:58;1.10;;;0.88;;
15474;SDS011;7839;50.462;9.678;2023-08-01T22:08:38;0.70;;;0.70;;
15474;SDS011;7839;50.462;9.678;2023-08-01T22:15:19;1.00;;;0.80;;
15474;SDS011;7839;50.462;9.678;2023-08-01T22:21:59;1.40;;;0.93;;
15474;SDS011;7839;50.462;9.678;2023-08-01T22:28:39;1.33;;;0.90;;
15474;SDS011;7839;50.462;9.678;2023-08-01T22:35:20;2.92;;;0.90;;
15474;SDS011;7839;50.462;9.678;2023-08-01T22:42:00;0.93;;;0.70;;
15474;SDS011;7839;50.462;9.678;2023-08-01T22:48:40;0.95;;;0.90;;
15474;SDS011;7839;50.462;9.678;2023-08-01T22:55:21;1.10;;;1.00;;
15474;SDS011;7839;50.462;9.678;2023-08-01T23:02:01;2.20;;;1.00;;
15474;SDS011;7839;50.462;9.678;2023-08-01T23:08:41;0.90;;;0.90;;
15474;SDS011;7839;50.462;9.678;2023-08-01T23:15:22;2.50;;;1.10;;
15474;SDS011;7839;50.462;9.678;2023-08-01T23:22:02;0.83;;;0.70;;
15474;SDS011;7839;50.462;9.678;2023-08-01T23:28:42;1.20;;;1.10;;
15474;SDS011;7839;50.462;9.678;2023-08-01T23:35:23;0.90;;;0.90;;
15474;SDS011;7839;50.462;9.678;2023-08-01T23:42:03;1.90;;;0.95;;
15474;SDS011;7839;50.462;9.678;2023-08-01T23:48:43;2.25;;;1.10;;
15474;SDS011;7839;50.462;9.678;2023-08-01T23:55:25;1.17;;;1.00;;
